createdAt,value
2023-02-22T00:02:45.295Z,156.88
2023-02-22T00:05:53.877Z,162.10
2023-02-22T00:09:00.166Z,156.57
2023-02-22T00:12:05.447Z,162.77
2023-02-22T00:15:13.542Z,159.50
2023-02-22T00:18:19.887Z,158.65
2023-02-22T00:21:25.619Z,166.20
2023-02-22T00:24:33.054Z,157.93
2023-02-22T00:27:38.587Z,164.40
2023-02-22T00:30:44.188Z,170.65
2023-02-22T00:33:50.139Z,158.57
2023-02-22T00:36:55.755Z,165.45
2023-02-22T00:40:00.922Z,161.82
2023-02-22T00:43:08.013Z,157.10
2023-02-22T00:46:14.209Z,163.68
2023-02-22T00:49:19.900Z,160.18
2023-02-22T00:52:28.553Z,168.48
2023-02-22T00:55:36.608Z,170.75
2023-02-22T00:58:41.941Z,157.60
2023-02-22T01:01:47.844Z,161.70
2023-02-22T01:04:53.079Z,165.90
2023-02-22T01:08:00.585Z,178.77
2023-02-22T01:11:06.121Z,158.25
2023-02-22T01:14:11.921Z,159.52
2023-02-22T01:17:17.061Z,170.30
2023-02-22T01:20:23.693Z,156.77
2023-02-22T01:23:28.969Z,156.73
2023-02-22T01:26:36.307Z,167.38
2023-02-22T01:29:41.576Z,167.02
2023-02-22T01:32:47.273Z,160.20
2023-02-22T01:35:53.196Z,153.35
2023-02-22T01:38:58.471Z,157.43
2023-02-22T01:42:05.762Z,162.95
2023-02-22T01:45:53.406Z,166.45
2023-02-22T01:49:10.643Z,161.93
2023-02-22T01:52:21.231Z,156.98
2023-02-22T01:55:27.167Z,162.90
2023-02-22T01:58:36.134Z,159.18
2023-02-22T02:01:46.138Z,171.82
2023-02-22T02:04:54.536Z,148.27
2023-02-22T02:08:05.948Z,157.15
2023-02-22T02:11:11.416Z,165.68
2023-02-22T02:14:16.957Z,154.30
2023-02-22T02:17:23.914Z,156.80
2023-02-22T02:20:49.580Z,155.10
2023-02-22T02:24:05.111Z,159.35
2023-02-22T02:27:12.180Z,147.02
2023-02-22T02:30:32.866Z,144.45
2023-02-22T02:33:49.959Z,153.57
2023-02-22T02:37:21.185Z,155.85
2023-02-22T02:40:52.367Z,142.90
2023-02-22T02:44:11.728Z,155.10
2023-02-22T02:47:35.961Z,149.45
2023-02-22T02:50:47.175Z,150.40
2023-02-22T02:53:53.579Z,153.80
2023-02-22T02:56:58.866Z,146.00
2023-02-22T03:00:22.918Z,147.75
2023-02-22T03:03:56.046Z,154.63
2023-02-22T03:07:03.617Z,151.63
2023-02-22T03:10:33.468Z,140.68
2023-02-22T03:13:51.080Z,144.75
2023-02-22T03:17:12.620Z,143.05
2023-02-22T03:21:00.806Z,153.43
2023-02-22T03:24:36.496Z,140.25
2023-02-22T03:27:47.765Z,145.50
2023-02-22T03:31:06.019Z,142.32
2023-02-22T03:34:19.576Z,149.23
2023-02-22T03:37:34.257Z,157.43
2023-02-22T03:40:48.999Z,144.63
2023-02-22T03:44:17.730Z,145.48
2023-02-22T03:47:33.955Z,153.07
2023-02-22T03:50:39.439Z,145.18
2023-02-22T03:53:48.246Z,150.85
2023-02-22T03:57:01.015Z,164.25
2023-02-22T04:00:12.314Z,153.63
2023-02-22T04:03:24.192Z,150.27
2023-02-22T04:06:31.392Z,154.88
2023-02-22T04:09:38.877Z,157.68
2023-02-22T04:12:44.585Z,152.13
2023-02-22T04:15:50.130Z,147.68
2023-02-22T04:18:57.062Z,149.93
2023-02-22T04:22:03.009Z,151.75
2023-02-22T04:25:13.141Z,145.27
2023-02-22T04:28:19.456Z,144.93
2023-02-22T04:31:34.039Z,162.15
2023-02-22T04:34:39.587Z,161.00
2023-02-22T04:37:45.107Z,157.48
2023-02-22T04:40:50.559Z,156.18
2023-02-22T04:43:55.879Z,150.57
2023-02-22T04:47:03.945Z,160.48
2023-02-22T04:50:11.371Z,147.90
2023-02-22T04:53:17.431Z,157.13
2023-02-22T04:56:23.643Z,155.07
2023-02-22T04:59:29.741Z,150.55
2023-02-22T05:02:40.260Z,152.82
2023-02-22T05:05:45.740Z,157.77
2023-02-22T05:08:51.223Z,152.70
2023-02-22T05:11:56.392Z,151.43
2023-02-22T05:15:01.690Z,159.18
2023-02-22T05:18:06.733Z,157.02
2023-02-22T05:21:12.970Z,154.27
2023-02-22T05:24:18.390Z,155.35
2023-02-22T05:27:23.638Z,159.18
2023-02-22T05:30:33.226Z,155.27
2023-02-22T05:33:40.004Z,170.20
2023-02-22T05:36:47.372Z,154.68
2023-02-22T05:39:53.532Z,150.55
2023-02-22T05:43:02.460Z,153.15
2023-02-22T05:46:08.375Z,150.10
2023-02-22T05:49:14.108Z,163.15
2023-02-22T05:52:19.109Z,143.52
2023-02-22T05:55:24.883Z,154.32
2023-02-22T05:58:30.096Z,161.25
2023-02-22T06:01:35.251Z,163.45
2023-02-22T06:04:40.609Z,162.15
2023-02-22T06:07:46.498Z,158.38
2023-02-22T06:10:51.868Z,166.48
2023-02-22T06:13:57.108Z,164.45
2023-02-22T06:17:03.159Z,167.55
2023-02-22T06:20:14.437Z,161.82
2023-02-22T06:23:19.954Z,159.05
2023-02-22T06:26:25.162Z,165.13
2023-02-22T06:29:30.612Z,156.32
2023-02-22T06:32:35.903Z,172.77
2023-02-22T06:35:41.687Z,164.15
2023-02-22T06:38:47.346Z,153.27
2023-02-22T06:41:55.432Z,154.55
2023-02-22T06:45:01.257Z,162.95
2023-02-22T06:48:06.571Z,161.50
2023-02-22T06:51:12.036Z,159.77
2023-02-22T06:54:17.250Z,160.90
2023-02-22T06:57:22.736Z,152.77
2023-02-22T07:00:30.236Z,157.35
2023-02-22T07:03:36.197Z,159.57
2023-02-22T07:06:47.185Z,159.60
2023-02-22T07:09:52.463Z,161.07
2023-02-22T07:12:58.410Z,150.90
2023-02-22T07:16:03.959Z,173.10
2023-02-22T07:19:09.404Z,153.85
2023-02-22T07:22:15.377Z,154.25
2023-02-22T07:25:21.474Z,151.90
2023-02-22T07:28:27.185Z,160.90
2023-02-22T07:31:39.603Z,169.70
2023-02-22T07:34:45.483Z,165.07
2023-02-22T07:37:51.088Z,166.02
2023-02-22T07:40:58.322Z,162.55
2023-02-22T07:44:04.181Z,161.88
2023-02-22T07:47:12.894Z,159.23
2023-02-22T07:50:20.199Z,155.38
2023-02-22T07:53:30.793Z,163.52
2023-02-22T07:56:36.192Z,162.10
2023-02-22T07:59:41.568Z,161.55
2023-02-22T08:02:47.343Z,163.43
2023-02-22T08:05:56.935Z,155.57
2023-02-22T08:09:02.756Z,161.93
2023-02-22T08:12:08.692Z,159.57
2023-02-22T08:15:26.266Z,161.02
2023-02-22T08:18:31.672Z,155.63
2023-02-22T08:21:37.234Z,164.35
2023-02-22T08:24:43.079Z,153.45
2023-02-22T08:27:48.993Z,168.25
2023-02-22T08:30:54.327Z,174.20
2023-02-22T08:34:01.385Z,157.85
2023-02-22T08:37:06.770Z,159.95
2023-02-22T08:40:15.048Z,157.65
2023-02-22T08:43:21.751Z,160.95
2023-02-22T08:46:27.054Z,161.38
2023-02-22T08:49:32.528Z,159.65
2023-02-22T08:52:37.979Z,163.93
2023-02-22T08:55:44.108Z,162.48
2023-02-22T08:58:49.637Z,159.98
2023-02-22T09:01:55.743Z,151.98
2023-02-22T09:05:01.167Z,151.95
2023-02-22T09:08:06.749Z,152.43
2023-02-22T09:11:12.654Z,150.65
2023-02-22T09:14:18.282Z,162.05
2023-02-22T09:17:23.660Z,146.45
2023-02-22T09:20:29.647Z,150.32
2023-02-22T09:23:35.457Z,151.35
2023-02-22T09:26:47.487Z,150.30
2023-02-22T09:29:53.312Z,159.40
2023-02-22T09:33:02.008Z,138.43
2023-02-22T09:36:07.973Z,153.50
2023-02-22T09:39:15.631Z,144.88
2023-02-22T09:42:33.866Z,135.13
2023-02-22T09:46:06.069Z,136.02
2023-02-22T09:52:31.720Z,127.32
2023-02-22T09:55:42.595Z,125.93
2023-02-22T09:58:55.569Z,129.82
2023-02-22T10:02:20.310Z,135.45
2023-02-22T10:05:38.040Z,129.07
2023-02-22T10:08:45.280Z,124.03
2023-02-22T10:11:56.094Z,123.50
2023-02-22T10:15:38.737Z,132.07
2023-02-22T10:18:49.651Z,139.35
2023-02-22T10:22:16.322Z,140.43
2023-02-22T10:25:26.181Z,121.75
2023-02-22T10:28:53.173Z,122.32
2023-02-22T10:32:02.949Z,135.07
2023-02-22T10:35:28.508Z,131.05
2023-02-22T10:38:35.224Z,125.32
2023-02-22T10:41:54.737Z,126.38
2023-02-22T10:45:01.095Z,124.38
2023-02-22T10:48:27.055Z,121.55
2023-02-22T10:51:33.116Z,124.97
2023-02-22T10:54:42.689Z,116.75
2023-02-22T10:57:52.039Z,140.90
2023-02-22T11:00:58.257Z,147.00
2023-02-22T11:04:14.964Z,139.60
2023-02-22T11:07:34.261Z,131.52
2023-02-22T11:10:39.832Z,136.45
2023-02-22T11:13:55.396Z,131.35
2023-02-22T11:17:06.886Z,115.40
2023-02-22T11:23:33.248Z,107.47
2023-02-22T11:26:56.584Z,134.73
2023-02-22T11:30:25.677Z,108.07
2023-02-22T11:33:31.868Z,116.15
2023-02-22T11:36:43.082Z,114.38
2023-02-22T11:40:04.216Z,112.55
2023-02-22T11:43:20.740Z,104.63
2023-02-22T11:46:32.877Z,105.18
2023-02-22T11:49:45.982Z,109.50
2023-02-22T11:53:14.915Z,110.68
2023-02-22T11:56:40.604Z,111.95
2023-02-22T12:00:12.585Z,106.93
2023-02-22T12:03:55.332Z,110.38
2023-02-22T12:07:30.413Z,102.47
2023-02-22T12:10:55.543Z,105.80
2023-02-22T12:14:13.262Z,101.07
2023-02-22T12:17:43.583Z,106.57
2023-02-22T12:20:56.855Z,104.28
2023-02-22T12:24:14.621Z,110.72
2023-02-22T12:27:34.424Z,106.63
2023-02-22T12:30:44.516Z,111.53
2023-02-22T12:33:54.485Z,103.30
2023-02-22T12:37:21.809Z,102.88
2023-02-22T12:40:58.590Z,98.55
2023-02-22T12:44:09.690Z,111.70
2023-02-22T12:47:21.911Z,99.85
2023-02-22T12:50:34.699Z,105.32
2023-02-22T12:53:45.392Z,107.25
2023-02-22T12:56:59.931Z,102.90
2023-02-22T13:00:47.422Z,102.40
2023-02-22T13:03:56.111Z,114.78
2023-02-22T13:07:23.210Z,104.30
2023-02-22T13:10:53.162Z,117.65
2023-02-22T13:14:14.975Z,108.65
2023-02-22T13:17:36.208Z,108.97
2023-02-22T13:20:54.122Z,93.57
2023-02-22T13:24:14.011Z,99.25
2023-02-22T13:27:38.937Z,108.55
2023-02-22T13:30:57.615Z,103.70
2023-02-22T13:34:20.556Z,113.70
2023-02-22T13:37:50.932Z,104.63
2023-02-22T13:41:35.484Z,109.13
2023-02-22T13:45:08.159Z,110.20
2023-02-22T13:48:20.303Z,116.40
2023-02-22T13:51:46.791Z,109.88
2023-02-22T13:55:03.099Z,106.75
2023-02-22T13:58:12.014Z,118.65
2023-02-22T14:01:55.225Z,104.57
2023-02-22T14:05:00.688Z,115.80
2023-02-22T14:08:08.312Z,122.90
2023-02-22T14:11:19.200Z,116.63
2023-02-22T14:14:25.056Z,107.03
2023-02-22T14:17:31.030Z,122.50
2023-02-22T14:20:40.437Z,125.28
2023-02-22T14:23:51.908Z,106.82
2023-02-22T14:27:03.704Z,117.85
2023-02-22T14:33:57.627Z,114.57
2023-02-22T14:37:20.064Z,119.82
2023-02-22T14:40:29.449Z,117.25
2023-02-22T14:43:38.453Z,119.57
2023-02-22T14:46:50.356Z,117.60
2023-02-22T14:50:05.676Z,116.38
2023-02-22T14:53:32.582Z,115.63
2023-02-22T14:57:15.056Z,113.32
2023-02-22T15:00:32.666Z,114.25
2023-02-22T15:03:38.290Z,113.40
2023-02-22T15:06:44.568Z,127.75
2023-02-22T15:09:50.197Z,117.32
2023-02-22T15:13:10.850Z,120.78
2023-02-22T15:16:16.468Z,124.57
2023-02-22T15:19:32.127Z,113.68
2023-02-22T15:22:37.824Z,125.68
2023-02-22T15:25:49.548Z,117.53
2023-02-22T15:32:02.470Z,120.45
2023-02-22T15:35:23.724Z,119.70
2023-02-22T15:38:30.531Z,121.93
2023-02-22T15:41:36.388Z,120.47
2023-02-22T15:44:43.780Z,121.85
2023-02-22T15:47:50.202Z,115.80
2023-02-22T15:51:07.451Z,121.47
2023-02-22T15:54:26.570Z,115.57
2023-02-22T15:57:35.853Z,113.72
2023-02-22T16:00:58.113Z,128.05
2023-02-22T16:04:03.957Z,140.35
2023-02-22T16:07:17.395Z,121.25
2023-02-22T16:10:33.840Z,125.55
2023-02-22T16:13:41.654Z,121.25
2023-02-22T16:16:47.008Z,121.65
2023-02-22T16:19:53.438Z,114.15
2023-02-22T16:22:58.794Z,119.43
2023-02-22T16:26:26.804Z,117.43
2023-02-22T16:29:32.411Z,118.38
2023-02-22T16:32:37.414Z,126.22
2023-02-22T16:35:52.119Z,131.25
2023-02-22T16:38:57.538Z,136.05
2023-02-22T16:42:05.470Z,135.68
2023-02-22T16:45:16.717Z,128.73
2023-02-22T16:48:25.475Z,128.63
2023-02-22T16:51:40.904Z,114.10
2023-02-22T16:54:46.634Z,116.70
2023-02-22T16:57:57.044Z,131.70
2023-02-22T17:01:02.562Z,129.30
2023-02-22T17:04:22.389Z,125.57
2023-02-22T17:07:31.248Z,126.38
2023-02-22T17:10:37.048Z,127.22
2023-02-22T17:13:42.296Z,130.00
2023-02-22T17:16:47.820Z,118.43
2023-02-22T17:19:55.267Z,124.28
2023-02-22T17:23:08.428Z,133.43
2023-02-22T17:26:16.093Z,145.48
2023-02-22T17:29:21.821Z,139.60
2023-02-22T17:32:27.223Z,149.85
2023-02-22T17:35:37.280Z,141.68
2023-02-22T17:38:43.360Z,142.65
2023-02-22T17:41:55.402Z,140.88
2023-02-22T17:45:00.674Z,147.25
2023-02-22T17:48:06.143Z,147.18
2023-02-22T17:51:12.706Z,149.25
2023-02-22T17:54:18.099Z,133.77
2023-02-22T17:57:23.472Z,140.27
2023-02-22T18:00:33.529Z,145.82
2023-02-22T18:03:40.624Z,137.40
2023-02-22T18:06:47.023Z,141.55
2023-02-22T18:09:52.539Z,141.98
2023-02-22T18:13:02.290Z,145.45
2023-02-22T18:16:10.280Z,140.45
2023-02-22T18:19:21.023Z,132.52
2023-02-22T18:22:28.300Z,147.95
2023-02-22T18:25:35.865Z,151.23
2023-02-22T18:28:41.559Z,132.82
2023-02-22T18:31:47.217Z,147.30
2023-02-22T18:34:52.576Z,145.05
2023-02-22T18:37:58.050Z,146.60
2023-02-22T18:41:07.152Z,146.45
2023-02-22T18:44:12.775Z,138.90
2023-02-22T18:47:20.155Z,138.32
2023-02-22T18:50:26.409Z,150.43
2023-02-22T18:53:33.292Z,150.45
2023-02-22T18:56:40.539Z,156.18
2023-02-22T18:59:46.204Z,136.75
2023-02-22T19:02:53.989Z,146.55
2023-02-22T19:06:03.898Z,144.27
2023-02-22T19:09:09.209Z,152.25
2023-02-22T19:12:17.300Z,145.55
2023-02-22T19:15:23.768Z,152.73
2023-02-22T19:18:29.116Z,148.45
2023-02-22T19:21:34.594Z,153.77
2023-02-22T19:24:40.152Z,139.73
2023-02-22T19:27:45.620Z,146.57
2023-02-22T19:30:51.055Z,142.98
2023-02-22T19:34:00.808Z,149.98
2023-02-22T19:37:06.754Z,138.23
2023-02-22T19:40:17.224Z,149.63
2023-02-22T19:43:22.626Z,146.25
2023-02-22T19:46:28.925Z,139.98
2023-02-22T19:49:37.226Z,160.40
2023-02-22T19:52:43.009Z,152.38
2023-02-22T19:55:48.743Z,149.52
2023-02-22T19:58:56.358Z,132.35
2023-02-22T20:02:02.121Z,149.43
2023-02-22T20:05:12.553Z,164.63
2023-02-22T20:08:18.413Z,172.98
2023-02-22T20:11:25.637Z,205.65
2023-02-22T20:14:31.196Z,190.48
2023-02-22T20:17:36.343Z,173.93
2023-02-22T20:20:43.162Z,186.02
2023-02-22T20:23:49.017Z,166.52
2023-02-22T20:26:56.854Z,164.23
2023-02-22T20:30:05.685Z,173.52
2023-02-22T20:33:14.642Z,170.90
2023-02-22T20:36:23.292Z,170.32
2023-02-22T20:39:29.258Z,167.65
2023-02-22T20:42:35.612Z,172.93
2023-02-22T20:45:43.272Z,163.48
2023-02-22T20:48:50.133Z,166.98
2023-02-22T20:51:57.018Z,160.77
2023-02-22T20:55:05.483Z,167.20
2023-02-22T20:58:11.060Z,170.75
2023-02-22T21:01:20.786Z,171.23
2023-02-22T21:04:31.478Z,160.65
2023-02-22T21:07:40.368Z,162.90
2023-02-22T21:10:48.819Z,170.98
2023-02-22T21:13:54.914Z,155.88
2023-02-22T21:17:03.801Z,182.50
2023-02-22T21:20:13.097Z,160.65
2023-02-22T21:23:18.807Z,172.15
2023-02-22T21:26:30.469Z,174.20
2023-02-22T21:29:36.196Z,171.23
2023-02-22T21:32:42.190Z,174.40
2023-02-22T21:35:48.164Z,168.50
2023-02-22T21:39:00.212Z,154.52
2023-02-22T21:45:13.299Z,160.30
2023-02-22T21:48:19.768Z,177.43
2023-02-22T21:51:31.773Z,158.60
2023-02-22T21:54:37.450Z,175.55
2023-02-22T21:57:43.038Z,178.80
2023-02-22T22:00:48.930Z,169.25
2023-02-22T22:03:55.051Z,180.55
2023-02-22T22:07:04.236Z,165.45
2023-02-22T22:10:14.925Z,166.80
2023-02-22T22:13:23.554Z,163.13
2023-02-22T22:16:30.205Z,159.07
2023-02-22T22:19:42.039Z,151.88
2023-02-22T22:22:47.433Z,151.55
2023-02-22T22:26:02.618Z,164.20
2023-02-22T22:29:10.810Z,165.23
2023-02-22T22:32:16.487Z,162.68
2023-02-22T22:35:22.952Z,167.93
2023-02-22T22:38:29.740Z,156.93
2023-02-22T22:41:35.086Z,161.85
2023-02-22T22:44:43.528Z,158.95
2023-02-22T22:47:48.992Z,164.30
2023-02-22T22:51:06.867Z,164.15
2023-02-22T22:54:12.762Z,170.55
2023-02-22T22:57:18.281Z,165.68
2023-02-22T23:00:29.822Z,162.80
2023-02-22T23:03:38.347Z,160.23
2023-02-22T23:06:52.627Z,162.43
2023-02-22T23:09:58.224Z,152.73
2023-02-22T23:13:04.272Z,167.75
2023-02-22T23:16:12.392Z,161.88
2023-02-22T23:19:19.527Z,163.27
2023-02-22T23:22:24.879Z,155.30
2023-02-22T23:25:30.658Z,157.27
2023-02-22T23:28:38.788Z,155.25
2023-02-22T23:31:44.580Z,157.70
2023-02-22T23:34:50.125Z,145.93
2023-02-22T23:37:58.554Z,149.30
2023-02-22T23:41:06.328Z,154.40
2023-02-22T23:44:17.943Z,149.27
2023-02-22T23:47:23.497Z,150.27
2023-02-22T23:50:31.306Z,158.57
2023-02-22T23:53:38.746Z,158.07
2023-02-22T23:56:47.503Z,152.50
2023-02-22T23:59:52.779Z,159.40
